PCLO2: Pine Creek Lake

Data processed at Sat Mar 10 2018 23:14


All information presented herein is the property of the government of the United States of America and may be revised or deleted at any time without prior notice.
Dissemination of this information without the expressed written consent of the Public Affairs Office, Tulsa District U.S. Army Corps of Engineers is strictly prohibited.
These data are gathered electronically and, as presented, have not undergone any form of quality control. These data are not guaranteed to be valid or correct.
Go to home page.
Go to station list.

Upstream stations:

Downstream station:
Previous Day
Next Day
Current Day
    
SHEF ID:       PCLO2     Pine Creek Lake
STATION TYPE:  RESERVOIR
Normal Pool:  Bottom =   414.00, Top =   433.00

               PRECIP  STAGE(2) ELEVATION   STORAGE   TW-ELEV    INFLOW   RELEASE  AIR-TEMP  WIND-DIRWIND-SPEED REL-HUMID SOLAR-RAD   VOLTAGE  BAT-LOAD
                   in        ft        ft     ac-ft        ft       cfs       cfs         F       deg       mph         %      W/m2      volt      volt
              Ccp-Rev   Ccp-Rev   Ccp-Rev   Ccp-Rev   Ccp-Rev  Regi-Rev  Regi-Rev   Ccp-Rev   Ccp-Rev   Ccp-Rev   Ccp-Rev   Ccp-Rev   Ccp-Rev   Ccp-Rev
(US/Central)
03/08 00:00      0.00    475.16    474.91    376909      2.68     32176      7479     36.39    167.00      2.10    100.11      0.00     12.80     12.53
03/08 01:00      0.00    475.12    474.87    376309      2.59       939      7477     36.50    140.20      1.30     97.26      0.00     12.78     12.50
03/08 02:00      0.00    475.08    474.84    375858      2.60       575      7476     36.84    342.20      2.10     98.94      0.00     12.75     12.47
03/08 03:00      0.00    475.05    474.80    375258      2.56       573      7475     37.09      9.60      4.10     99.40      0.00     12.72     12.44
03/08 04:00      0.00    475.01    474.76    374658      2.58       572      7474     36.25     13.50      2.30     97.35      0.00     12.68     12.41
03/08 05:00      0.00    474.97    474.72    374057      2.71       207      7472     36.28      4.60      4.70     97.08      0.00     12.65     12.45
03/08 06:00      0.00    474.93    474.68    373457      2.94       206      7471     36.52      3.90      4.90     93.95      0.00     12.64     12.35
03/08 07:00      0.00    474.89    474.64    372856      2.75       205      7469     35.62      4.00      3.80     93.02      0.00     12.65     12.34
03/08 08:00      0.00    474.84    474.60    372256      2.80       567      7469     37.27      1.00      3.30     91.60     97.40     12.72     12.35
03/08 09:00      0.00    474.82    474.56    371656      2.62       566      7468     39.94     18.20      4.20     85.19    320.80     12.93     12.40
03/08 10:00      0.00    474.78    474.53    371205      2.67       564      7465     44.55     18.20      2.80     66.45    536.00     13.95     12.94
03/08 11:00      0.00    474.71    474.49    370605      2.61       563      7464     50.47    338.20      1.60     47.79    654.50     14.07     13.39
03/08 12:00      0.00    474.68    474.45    370004      2.71       561      7463     55.85    261.00      3.40     32.40    801.00     13.53     13.37
03/08 13:00      0.00    474.66    474.41    369404      2.69       197      7461     56.79     11.20      4.20     29.84    874.70     14.12     13.42
03/08 14:00      0.00    474.57    474.41    369404      2.57       196      7461     57.83     11.00      4.90     30.16    570.20     13.63     13.30
03/08 15:00      0.00    474.58    474.33    368203      2.71       194      7459     60.84    343.00      3.20     26.46    827.70     13.52     13.30
03/08 16:00      0.00    474.55    474.29    367603      2.50       193      7457     62.91    271.20      3.70     22.07    556.10     14.11     13.19
03/08 17:00      0.00    474.51    474.25    367002      2.61       945      7456     63.52    191.20      4.30     22.49    410.80     14.12     13.16
03/08 18:00      0.00    474.47    474.21    366402      2.61      1697      7454     62.44    174.20      6.10     24.83    148.40     13.08     13.13
03/08 19:00      0.00    474.42    474.18    365952      2.56         0      7437     57.97    163.00      2.60     35.78      4.70     12.93     12.73
03/08 20:00      0.00    474.39    474.14    365351      2.63     32683      7420     53.19    153.50      2.50     46.81      0.00     12.90     12.60
03/08 21:00      0.00    474.35    474.09    364601      2.57     32681      7419     49.10    146.60      2.60     61.95      0.00     12.88     12.57
03/08 22:00      0.00    474.31    474.06    364151      2.77     32714      7434     48.56    153.30      2.70     57.94      0.00     12.86     12.61
03/08 23:00      0.00    474.26    474.02    363550      2.73     32026      7448     46.06    161.50      2.30     68.92      0.00     12.83     12.53